Aérodrome :
LOGIN :

S'inscrire | Disclaimer

   EN    FR    IT 

 










Légende :    VFR   VFR Marginal   IFR   IFR Intensif   IFR Très Intensif
Visi : 
Plafond : 
>= 8 km
>= 3000ft
5 à 8 km
1000 à 3000 ft
1500m à 5 km
500 à 1000 ft
800 à 1500m
200 à 500 ft
< 800m
< 200 ft
Symboles :   Orages  Brouillard  Fortes neiges  Fortes précipitations  Vent > 20 kt
SIGMETs :   Divers  Orages  Givrage  Turbulence  Onde Orograph.  Cendres Volcan.







- Altitude de l'aérodrome : 290 ft
- Code IATA : LAI
- Voir les cartes d'approche


LFRO - Lannion

DERNIER METAR :
  • 252200Z AUTO VRB02KT CAVOK 16/14 Q1022

METARs EXPIRÉS :
  • 252130Z AUTO VRB02KT CAVOK 16/14 Q1022
  • 252100Z AUTO VRB03KT CAVOK 16/15 Q1021
  • 252030Z AUTO VRB02KT CAVOK 17/15 Q1021
  • 252000Z AUTO 02003KT 340V090 CAVOK 17/15 Q1021
  • 251930Z AUTO 02004KT 350V060 CAVOK 17/15 Q1021

Prévision TAF périmée.
Pas de NOTAMs connus pour ce terrain.
1 SIGMET publié pour la FIR Brest (LFRR) :
 
Orages noyés dans la masse avec grêle
LFRR SIGMET 2 VALID 252200/260200 LFPW
LFRR BREST FIR/UIR EMBD TSGR OBS AT 2155Z WI N4400 W00415 - N4415 W00515 - N4615 W00300 - N4515 W00300 - N4400 W00415 TOP FL360 MOV NNE 25KT INTSF=



MET'MAP, la Météo Aéronautique d'un coup d'oeil ! - Copyright ORBIFLY Décembre 2007 - Disclaimer

ORBIFLY MET'MAP TEAM :

Programmation & Développement : Alexandra Zaïnal
Conception & Développement : Baudouin d'Aumeries
Co-Programmation & Développement : Marc-Olivier Méhu
Soutien technique & logistique : Manuel Goepfert

Contact : metmap@orbifly.com




SOURCES & CREDITS :

   NOAA